Time;durP1;ratioP1;P1;durP2;ratioP2;P2;SDS_P1;SDS_P2;PMS_P1;PMS_P2;Temp;Humidity;BMP_temperature;BMP_pressure;BME280_temperature;BME280_humidity;BME280_pressure;Samples;Min_cycle;Max_cycle;Signal;HPM_P1;HPM_P2
2023/01/14 17:03:14;;;;;;;9.10;6.20;;;8.40;99.90;;;;;;5109905;27;20273;-74
2023/01/14 17:05:44;;;;;;;13.77;6.27;;;8.90;99.90;;;;;;5110458;28;20195;-75
2023/01/14 17:08:22;;;;;;;10.93;6.00;;;8.70;99.90;;;;;;5108771;28;20203;-74
2023/01/14 17:10:51;;;;;;;10.80;5.77;;;8.60;99.90;;;;;;5110042;28;20253;-74
2023/01/14 17:13:19;;;;;;;12.63;6.20;;;8.60;99.90;;;;;;5110268;28;20215;-75
2023/01/14 17:15:50;;;;;;;10.77;7.00;;;8.60;99.90;;;;;;5109769;28;20215;-75
2023/01/14 17:18:20;;;;;;;18.60;9.67;;;8.70;99.90;;;;;;5110100;28;20229;-75
2023/01/14 17:20:54;;;;;;;9.27;6.53;;;8.80;99.90;;;;;;5109858;28;20188;-74
2023/01/14 17:23:23;;;;;;;9.17;6.07;;;8.80;99.90;;;;;;5109825;28;20525;-74
2023/01/14 17:25:52;;;;;;;9.57;6.90;;;8.80;99.90;;;;;;5110057;28;20197;-73
2023/01/14 17:28:20;;;;;;;13.77;6.43;;;8.70;99.90;;;;;;5109777;28;20196;-76
2023/01/14 17:30:49;;;;;;;11.10;5.80;;;8.70;99.90;;;;;;5109709;28;20733;-75
2023/01/14 17:33:19;;;;;;;9.47;6.27;;;8.70;99.90;;;;;;5109764;28;20680;-74
2023/01/14 17:35:48;;;;;;;10.97;5.60;;;8.70;99.90;;;;;;5109812;28;20288;-73
2023/01/14 17:38:17;;;;;;;10.33;5.53;;;8.70;99.90;;;;;;5109690;28;20189;-76
2023/01/14 17:40:45;;;;;;;9.67;5.87;;;8.70;99.90;;;;;;5109629;28;20220;-74
2023/01/14 17:43:14;;;;;;;11.67;5.43;;;8.80;99.90;;;;;;5109590;28;20653;-72
2023/01/14 17:45:43;;;;;;;11.20;6.47;;;8.80;99.90;;;;;;5109259;28;20208;-75
2023/01/14 17:48:12;;;;;;;12.10;5.90;;;8.80;99.90;;;;;;5109681;28;20275;-75
2023/01/14 17:50:42;;;;;;;12.80;6.73;;;8.60;99.90;;;;;;5109314;28;20191;-73
2023/01/14 17:53:11;;;;;;;9.87;5.50;;;8.60;99.90;;;;;;5109272;28;20188;-73
2023/01/14 17:55:41;;;;;;;11.80;6.40;;;8.60;99.90;;;;;;5107871;28;20705;-73
2023/01/14 17:58:10;;;;;;;9.30;5.53;;;8.60;99.90;;;;;;5106768;28;20189;-72
2023/01/14 18:00:39;;;;;;;11.20;5.20;;;8.60;99.90;;;;;;5108962;28;20195;-74
2023/01/14 18:03:08;;;;;;;10.10;5.80;;;8.60;99.90;;;;;;5105208;28;20342;-73
2023/01/14 18:05:42;;;;;;;9.63;5.60;;;8.60;99.90;;;;;;5090647;28;20216;-75
2023/01/14 18:08:10;;;;;;;8.53;5.10;;;8.60;99.90;;;;;;5099444;28;20609;-72
2023/01/14 18:10:41;;;;;;;7.33;5.53;;;8.60;99.90;;;;;;5106816;28;20199;-73
2023/01/14 18:13:23;;;;;;;8.73;5.60;;;8.60;99.90;;;;;;5100616;28;20231;-73
2023/01/14 18:15:55;;;;;;;12.03;6.07;;;8.50;99.90;;;;;;5094408;28;20651;-73
2023/01/14 18:18:24;;;;;;;11.37;5.57;;;8.50;99.90;;;;;;5094332;28;20298;-74
2023/01/14 18:21:00;;;;;;;10.57;5.73;;;8.50;99.90;;;;;;5093998;28;20188;-72
2023/01/14 18:23:29;;;;;;;10.90;6.30;;;8.50;99.90;;;;;;5094311;28;20293;-75
2023/01/14 18:26:01;;;;;;;7.23;5.33;;;8.50;99.90;;;;;;5093962;28;20670;-76
2023/01/14 18:28:34;;;;;;;10.17;5.63;;;8.50;99.90;;;;;;5094093;28;20301;-74
2023/01/14 18:31:04;;;;;;;10.87;5.67;;;8.50;99.90;;;;;;5094098;28;20226;-74
2023/01/14 18:33:33;;;;;;;10.60;6.17;;;8.40;99.90;;;;;;5092424;28;20197;-74
2023/01/14 18:36:04;;;;;;;10.50;6.00;;;8.40;99.90;;;;;;5093496;28;20204;-74
2023/01/14 18:38:33;;;;;;;9.57;6.07;;;8.50;99.90;;;;;;5093905;28;20250;-74
2023/01/14 18:41:05;;;;;;;10.23;5.13;;;8.40;99.90;;;;;;5093679;28;20192;-74
2023/01/14 18:43:34;;;;;;;11.60;6.27;;;8.40;99.90;;;;;;5093250;28;20236;-73
2023/01/14 18:46:09;;;;;;;11.63;5.10;;;8.40;99.90;;;;;;5093424;28;20192;-74
2023/01/14 18:48:40;;;;;;;11.57;5.57;;;8.30;99.90;;;;;;5093029;28;20608;-72
2023/01/14 18:51:10;;;;;;;10.50;5.73;;;8.40;99.90;;;;;;5093663;28;20731;-75
2023/01/14 18:53:39;;;;;;;8.43;5.03;;;8.40;99.90;;;;;;5093618;28;20242;-74
2023/01/14 18:56:09;;;;;;;10.83;4.97;;;8.30;99.90;;;;;;5093369;28;20559;-75
2023/01/14 18:58:40;;;;;;;10.10;5.40;;;8.30;99.90;;;;;;5093479;28;20195;-73
2023/01/14 19:01:10;;;;;;;9.77;4.80;;;8.30;99.90;;;;;;5093238;28;20237;-75
2023/01/14 19:03:39;;;;;;;12.67;5.93;;;8.20;99.90;;;;;;5091425;28;20235;-74
2023/01/14 19:06:11;;;;;;;10.67;5.73;;;8.30;99.90;;;;;;5092907;28;20227;-74
2023/01/14 19:08:40;;;;;;;10.17;5.00;;;8.30;99.90;;;;;;5093276;28;20216;-74
2023/01/14 19:13:53;;;;;;;7.03;4.63;;;8.20;99.90;;;;;;5093218;28;20228;-75
2023/01/14 19:16:23;;;;;;;10.07;5.57;;;8.30;99.90;;;;;;5093037;28;20659;-74
2023/01/14 19:18:52;;;;;;;10.40;5.40;;;8.40;99.90;;;;;;5092892;28;20259;-74
2023/01/14 19:21:22;;;;;;;9.50;5.43;;;8.40;99.90;;;;;;5093149;28;20243;-75
2023/01/14 19:23:52;;;;;;;11.90;5.07;;;8.40;99.90;;;;;;5092975;28;20563;-74
2023/01/14 19:26:21;;;;;;;7.77;4.77;;;8.40;99.90;;;;;;5092085;28;20545;-73
2023/01/14 19:28:50;;;;;;;8.33;5.07;;;8.40;99.90;;;;;;5092997;28;20207;-74
2023/01/14 19:31:21;;;;;;;9.87;5.90;;;8.40;99.90;;;;;;5092894;28;20196;-76
2023/01/14 19:33:49;;;;;;;16.30;5.83;;;8.40;99.90;;;;;;5092201;28;20211;-74
2023/01/14 19:36:18;;;;;;;9.63;5.83;;;8.40;99.90;;;;;;5092393;28;20292;-75
2023/01/14 19:38:48;;;;;;;11.40;6.17;;;8.40;99.90;;;;;;5092587;28;20253;-75
2023/01/14 19:41:17;;;;;;;10.83;5.53;;;7.90;99.90;;;;;;5091028;28;20196;-75
2023/01/14 19:43:48;;;;;;;8.00;5.40;;;7.50;99.90;;;;;;5092558;28;20228;-77
2023/01/14 19:46:18;;;;;;;11.10;5.47;;;7.40;99.90;;;;;;5092031;28;20333;-75
2023/01/14 19:48:47;;;;;;;11.57;5.90;;;7.50;99.90;;;;;;5092444;28;20192;-74
2023/01/14 19:51:18;;;;;;;10.07;5.70;;;7.40;99.90;;;;;;5092397;28;20735;-75
2023/01/14 19:53:48;;;;;;;11.63;6.63;;;7.30;99.90;;;;;;5091238;28;20203;-75
2023/01/14 19:56:20;;;;;;;10.27;5.80;;;7.40;99.90;;;;;;5092235;28;20205;-74
2023/01/14 19:58:51;;;;;;;12.60;6.43;;;7.40;99.90;;;;;;5092340;28;20204;-75
2023/01/14 20:01:20;;;;;;;9.60;5.93;;;7.40;99.90;;;;;;5091584;28;20241;-74
2023/01/14 20:03:53;;;;;;;23.17;12.50;;;7.40;99.90;;;;;;5092126;28;20694;-74
2023/01/14 20:06:26;;;;;;;27.47;11.00;;;7.50;99.90;;;;;;5089225;28;20189;-73
2023/01/14 20:09:00;;;;;;;11.03;5.83;;;7.50;99.90;;;;;;5088905;28;20204;-74
2023/01/14 20:11:29;;;;;;;8.53;5.87;;;7.50;99.90;;;;;;5091846;28;20200;-74
2023/01/14 20:13:58;;;;;;;14.00;6.10;;;7.40;99.90;;;;;;5091912;28;20220;-74
2023/01/14 20:16:28;;;;;;;10.80;5.73;;;7.50;99.90;;;;;;5091290;28;20193;-74
2023/01/14 20:18:57;;;;;;;13.40;5.90;;;7.60;99.90;;;;;;5091993;28;20204;-74
2023/01/14 20:21:27;;;;;;;10.23;5.13;;;7.60;99.90;;;;;;5091785;28;20538;-73
2023/01/14 20:23:58;;;;;;;9.60;5.60;;;7.50;99.90;;;;;;5090785;28;20263;-75
2023/01/14 20:26:30;;;;;;;11.83;5.90;;;7.60;99.90;;;;;;5089614;28;20207;-75
2023/01/14 20:29:00;;;;;;;16.93;6.10;;;7.60;99.90;;;;;;5091889;28;20201;-73
2023/01/14 20:31:30;;;;;;;11.10;5.33;;;7.50;99.90;;;;;;5091497;28;20219;-74
2023/01/14 20:34:00;;;;;;;11.30;5.60;;;7.50;99.90;;;;;;5091612;28;20573;-75
2023/01/14 20:36:29;;;;;;;8.60;4.83;;;7.60;99.90;;;;;;5090731;28;20188;-74
2023/01/14 20:38:59;;;;;;;10.07;5.20;;;7.60;99.90;;;;;;5082886;28;20235;-74
2023/01/14 20:42:15;;;;;;;7.37;5.20;;;7.60;99.90;;;;;;5079090;28;20257;-73
2023/01/14 20:47:05;;;;;;;8.87;4.60;;;7.60;99.90;;;;;;5009210;28;20203;-73
2023/01/14 20:49:33;;;;;;;10.20;4.93;;;7.50;99.90;;;;;;5009317;28;20211;-73
2023/01/14 20:52:02;;;;;;;11.47;5.10;;;7.50;99.90;;;;;;5011658;28;20203;-74
2023/01/14 20:54:32;;;;;;;8.67;4.83;;;7.40;99.90;;;;;;5029076;28;20773;-73
2023/01/14 20:57:02;;;;;;;8.83;4.83;;;7.40;99.90;;;;;;5027962;28;20237;-74
2023/01/14 20:59:32;;;;;;;6.93;4.50;;;7.30;99.90;;;;;;5028657;28;20205;-72
2023/01/14 21:02:01;;;;;;;5.97;4.23;;;7.30;99.90;;;;;;5043195;28;20252;-77
2023/01/14 21:04:32;;;;;;;9.43;5.10;;;7.30;99.90;;;;;;5072325;28;20236;-73
2023/01/14 21:07:01;;;;;;;7.17;5.00;;;7.40;99.90;;;;;;5083014;28;20243;-74
2023/01/14 21:09:32;;;;;;;10.83;5.17;;;7.30;99.90;;;;;;5090118;28;20213;-72
2023/01/14 21:12:02;;;;;;;8.80;5.00;;;7.20;99.90;;;;;;5091390;28;20188;-73
2023/01/14 21:23:09;;;;;;;7.63;4.73;;;6.90;99.90;;;;;;5027834;28;20211;-73
2023/01/14 21:25:41;;;;;;;9.23;5.07;;;6.80;99.90;;;;;;5026874;28;20349;-73
2023/01/14 21:28:11;;;;;;;9.50;5.37;;;6.80;99.90;;;;;;5028321;28;20696;-73
2023/01/14 21:30:41;;;;;;;8.17;6.20;;;6.70;99.90;;;;;;5026272;28;20221;-72
2023/01/14 21:33:11;;;;;;;10.13;5.50;;;6.60;99.90;;;;;;5028749;28;20281;-73
2023/01/14 21:35:41;;;;;;;8.20;4.93;;;6.60;99.90;;;;;;5028693;28;20205;-76
2023/01/14 21:38:10;;;;;;;10.53;5.27;;;6.60;99.90;;;;;;5028311;28;20238;-73
2023/01/14 21:40:41;;;;;;;12.70;5.50;;;6.60;99.90;;;;;;5028481;28;20202;-72
2023/01/14 21:46:01;;;;;;;5.43;4.70;;;6.60;99.90;;;;;;5007934;28;20570;-74
2023/01/14 21:48:31;;;;;;;11.70;5.47;;;6.60;99.90;;;;;;5048510;28;20295;-73
2023/01/14 21:51:02;;;;;;;10.97;5.50;;;6.60;99.90;;;;;;5091873;28;20193;-73
2023/01/14 21:53:31;;;;;;;7.50;5.43;;;6.60;99.90;;;;;;5051871;28;20206;-74
2023/01/14 21:56:02;;;;;;;6.90;5.30;;;6.60;99.90;;;;;;5051983;28;20259;-73
2023/01/14 21:58:31;;;;;;;16.93;6.27;;;6.60;99.90;;;;;;5078430;22;20239;-74
2023/01/14 22:01:05;;;;;;;7.17;5.57;;;6.60;99.90;;;;;;5091167;28;20628;-73
2023/01/14 22:03:34;;;;;;;8.53;5.23;;;6.60;99.90;;;;;;5094311;28;20236;-73
2023/01/14 22:06:05;;;;;;;9.43;5.43;;;6.70;99.90;;;;;;5094538;28;20275;-73
2023/01/14 22:08:34;;;;;;;9.73;5.93;;;6.70;99.90;;;;;;5093503;28;20219;-73
2023/01/14 22:11:10;;;;;;;9.40;5.60;;;6.70;99.90;;;;;;5092456;28;20196;-73
2023/01/14 22:13:39;;;;;;;8.10;5.47;;;6.70;99.90;;;;;;5093780;28;20200;-73
2023/01/14 22:16:08;;;;;;;8.57;5.90;;;6.80;99.90;;;;;;5091286;28;20294;-75
2023/01/14 22:18:37;;;;;;;10.97;6.30;;;6.80;99.90;;;;;;5094104;28;20189;-75
2023/01/14 22:21:07;;;;;;;9.23;5.47;;;6.80;99.90;;;;;;5086782;28;20718;-76
2023/01/14 22:23:41;;;;;;;8.70;5.10;;;6.80;99.90;;;;;;5093984;28;20191;-74
2023/01/14 22:26:13;;;;;;;10.13;5.97;;;6.80;99.90;;;;;;5093821;28;20198;-71
2023/01/14 22:28:47;;;;;;;8.47;5.63;;;6.90;99.90;;;;;;5093900;28;20189;-72
2023/01/14 22:31:20;;;;;;;8.87;5.50;;;6.90;99.90;;;;;;5093448;28;20588;-75
2023/01/14 22:33:49;;;;;;;8.80;5.50;;;7.00;99.90;;;;;;5090354;28;20200;-75
2023/01/14 22:36:18;;;;;;;10.83;5.50;;;7.00;99.90;;;;;;5089882;28;20253;-73
2023/01/14 22:38:47;;;;;;;9.83;5.53;;;7.00;99.90;;;;;;5093763;28;20242;-73
2023/01/14 22:41:17;;;;;;;9.33;5.47;;;7.00;99.90;;;;;;5093055;28;20197;-73
2023/01/14 22:43:46;;;;;;;12.03;6.23;;;6.90;99.90;;;;;;5093923;28;20258;-73
2023/01/14 22:46:15;;;;;;;9.30;5.53;;;7.00;99.90;;;;;;5093781;28;20717;-75
2023/01/14 22:48:44;;;;;;;10.47;5.33;;;7.00;99.90;;;;;;5074554;28;20676;-73
2023/01/14 22:51:13;;;;;;;7.73;5.33;;;7.00;99.90;;;;;;5094047;28;20192;-76
2023/01/14 22:53:42;;;;;;;10.17;5.70;;;7.00;99.90;;;;;;5092360;28;20193;-73
2023/01/14 22:56:13;;;;;;;11.27;5.53;;;7.00;99.90;;;;;;5092172;28;20197;-73
2023/01/14 22:58:43;;;;;;;8.73;5.43;;;6.90;99.90;;;;;;5093300;28;20228;-74
2023/01/14 23:01:17;;;;;;;14.17;6.63;;;6.90;99.90;;;;;;5087511;28;20200;-73
2023/01/14 23:03:46;;;;;;;12.27;5.43;;;6.90;99.90;;;;;;5089476;28;20197;-73
2023/01/14 23:06:16;;;;;;;8.00;5.00;;;6.90;99.90;;;;;;5090452;28;20240;-74
2023/01/14 23:08:59;;;;;;;9.97;5.97;;;7.00;99.90;;;;;;5073956;28;20217;-74
2023/01/14 23:11:29;;;;;;;10.07;5.30;;;7.00;99.90;;;;;;5074353;28;20595;-75
2023/01/14 23:14:01;;;;;;;7.80;5.27;;;7.00;99.90;;;;;;5073878;28;20250;-75
2023/01/14 23:19:23;;;;;;;8.97;5.57;;;7.20;99.90;;;;;;5073871;28;20197;-74
2023/01/14 23:24:41;;;;;;;6.33;5.17;;;7.10;99.90;;;;;;5093825;28;20552;-74
2023/01/14 23:27:12;;;;;;;13.73;5.80;;;7.20;99.90;;;;;;5093650;28;20207;-73
2023/01/14 23:29:43;;;;;;;6.53;4.83;;;7.20;99.90;;;;;;5093842;28;20200;-73
2023/01/14 23:32:13;;;;;;;8.80;5.33;;;7.20;99.90;;;;;;5093789;28;20963;-74
2023/01/14 23:34:44;;;;;;;9.63;5.90;;;7.20;99.90;;;;;;5082824;28;20211;-74
2023/01/14 23:37:12;;;;;;;8.33;5.23;;;7.20;99.90;;;;;;5093644;28;20566;-73
2023/01/14 23:39:41;;;;;;;9.73;5.03;;;7.20;99.90;;;;;;5073265;28;20235;-75
2023/01/14 23:42:10;;;;;;;8.73;5.23;;;7.20;99.90;;;;;;5073144;28;20193;-73
2023/01/14 23:44:50;;;;;;;9.40;5.30;;;7.20;99.90;;;;;;5073029;28;20223;-76
2023/01/14 23:47:18;;;;;;;6.83;5.07;;;7.20;99.90;;;;;;5073225;28;20536;-74
2023/01/14 23:49:47;;;;;;;11.43;6.10;;;7.30;99.90;;;;;;5073147;28;20675;-74
2023/01/14 23:52:16;;;;;;;7.57;5.17;;;7.20;99.90;;;;;;5073158;28;20193;-75
2023/01/14 23:54:45;;;;;;;10.33;4.87;;;7.30;99.90;;;;;;5073059;28;20259;-74
2023/01/14 23:57:14;;;;;;;9.97;5.80;;;7.20;99.90;;;;;;5072770;28;20231;-75
2023/01/14 23:59:43;;;;;;;6.93;5.13;;;7.20;99.90;;;;;;5054485;28;20236;-72
